Time;durP1;ratioP1;P1;durP2;ratioP2;P2;SDS_P1;SDS_P2;PMS_P1;PMS_P2;Temp;Humidity;BMP_temperature;BMP_pressure;BME280_temperature;BME280_humidity;BME280_pressure;Samples;Min_cycle;Max_cycle;Signal;HPM_P1;HPM_P2
2021/06/17 00:00:29;;;;;;;29.93;27.93;;;;;;;;;;6278789;22;20387;-86
2021/06/17 00:02:57;;;;;;;30.50;28.57;;;;;;;;;;6252482;22;20390;-86
2021/06/17 00:05:25;;;;;;;31.17;29.13;;;;;;;;;;6252294;22;20748;-86
2021/06/17 00:07:54;;;;;;;29.93;27.93;;;;;;;;;;6279539;22;20372;-86
2021/06/17 00:10:24;;;;;;;32.20;30.20;;;;;;;;;;6279412;22;20367;-86
2021/06/17 00:12:52;;;;;;;32.67;30.37;;;;;;;;;;6278976;22;20931;-86
2021/06/17 00:15:20;;;;;;;32.00;29.90;;;;;;;;;;6278577;22;20404;-85
2021/06/17 00:17:49;;;;;;;30.67;28.57;;;;;;;;;;6279371;22;20383;-86
2021/06/17 00:20:17;;;;;;;32.87;30.53;;;;;;;;;;6252440;22;20376;-86
2021/06/17 00:22:47;;;;;;;31.93;29.90;;;;;;;;;;6279021;22;20891;-86
2021/06/17 00:25:16;;;;;;;32.27;30.27;;;;;;;;;;6278644;22;20449;-86
2021/06/17 00:27:44;;;;;;;30.00;28.20;;;;;;;;;;6252227;22;20412;-85
2021/06/17 00:30:13;;;;;;;30.67;28.57;;;;;;;;;;6252377;22;20435;-86
2021/06/17 00:32:40;;;;;;;31.80;29.90;;;;;;;;;;6279050;22;20386;-86
2021/06/17 00:35:09;;;;;;;31.73;29.83;;;;;;;;;;6252452;22;20401;-86
2021/06/17 00:37:36;;;;;;;31.47;29.27;;;;;;;;;;6279057;22;20368;-86
2021/06/17 00:40:05;;;;;;;30.93;29.03;;;;;;;;;;6278508;22;20380;-86
2021/06/17 00:42:35;;;;;;;32.03;29.93;;;;;;;;;;6278573;22;20388;-86
2021/06/17 00:45:02;;;;;;;32.10;29.87;;;;;;;;;;6279035;22;20420;-86
2021/06/17 00:47:30;;;;;;;30.20;28.30;;;;;;;;;;6279110;22;20372;-86
2021/06/17 00:49:57;;;;;;;30.73;28.63;;;;;;;;;;6278345;22;20375;-86
2021/06/17 00:52:25;;;;;;;31.57;29.47;;;;;;;;;;6279193;22;20405;-86
2021/06/17 00:54:52;;;;;;;33.17;30.77;;;;;;;;;;6278716;22;20394;-86
2021/06/17 00:57:19;;;;;;;31.97;29.97;;;;;;;;;;6278778;22;20360;-86
2021/06/17 00:59:48;;;;;;;31.23;29.13;;;;;;;;;;6278740;22;20410;-86
2021/06/17 01:02:15;;;;;;;31.77;29.87;;;;;;;;;;6279215;22;20394;-86
2021/06/17 01:04:43;;;;;;;31.43;29.43;;;;;;;;;;6278075;22;20523;-86
2021/06/17 01:07:11;;;;;;;32.73;30.73;;;;;;;;;;6278459;22;20364;-86
2021/06/17 01:09:43;;;;;;;31.20;29.30;;;;;;;;;;6279907;22;20421;-86
2021/06/17 01:12:16;;;;;;;30.87;28.77;;;;;;;;;;6278355;22;20416;-86
2021/06/17 01:14:50;;;;;;;34.03;31.63;;;;;;;;;;6278788;22;20376;-86
2021/06/17 01:17:19;;;;;;;32.13;30.03;;;;;;;;;;6278107;22;20380;-86
2021/06/17 01:19:52;;;;;;;31.67;29.60;;;;;;;;;;6278364;22;20409;-86
2021/06/17 01:22:29;;;;;;;31.73;29.63;;;;;;;;;;6278454;22;20378;-86
2021/06/17 01:25:11;;;;;;;32.17;29.77;;;;;;;;;;6278282;22;20443;-86
2021/06/17 01:27:53;;;;;;;32.73;30.33;;;;;;;;;;6278327;22;20400;-86
2021/06/17 01:30:23;;;;;;;32.13;30.03;;;;;;;;;;6275223;22;20404;-86
2021/06/17 01:32:55;;;;;;;32.13;29.93;;;;;;;;;;6278416;22;20372;-86
2021/06/17 01:35:23;;;;;;;32.13;30.03;;;;;;;;;;6251559;22;20898;-86
2021/06/17 01:37:53;;;;;;;31.17;28.97;;;;;;;;;;6251864;22;20413;-86
2021/06/17 01:40:21;;;;;;;30.73;28.93;;;;;;;;;;6278738;22;20732;-86
2021/06/17 01:42:49;;;;;;;32.00;29.90;;;;;;;;;;6278640;22;20398;-86
2021/06/17 01:45:17;;;;;;;31.93;29.70;;;;;;;;;;6277669;22;20444;-86
2021/06/17 01:47:50;;;;;;;32.20;30.00;;;;;;;;;;6251740;22;20380;-86
2021/06/17 01:50:18;;;;;;;31.33;29.53;;;;;;;;;;6278482;22;20402;-86
2021/06/17 01:52:46;;;;;;;31.83;29.90;;;;;;;;;;6251795;22;20383;-86
2021/06/17 01:55:15;;;;;;;31.73;29.63;;;;;;;;;;6278335;22;20875;-86
2021/06/17 01:57:43;;;;;;;30.63;28.73;;;;;;;;;;6278276;22;20397;-86
2021/06/17 02:00:11;;;;;;;29.93;28.03;;;;;;;;;;6278671;22;20408;-86
2021/06/17 02:02:40;;;;;;;31.00;29.00;;;;;;;;;;6277527;22;20409;-86
2021/06/17 02:05:10;;;;;;;31.17;29.17;;;;;;;;;;6277285;22;20426;-86
2021/06/17 02:07:41;;;;;;;31.40;29.20;;;;;;;;;;6278434;22;20405;-86
2021/06/17 02:10:10;;;;;;;31.17;29.20;;;;;;;;;;6251088;22;20866;-85
2021/06/17 02:12:39;;;;;;;30.13;28.13;;;;;;;;;;6277827;22;20443;-86
2021/06/17 02:15:08;;;;;;;32.37;30.33;;;;;;;;;;6278664;22;20759;-86
2021/06/17 02:17:36;;;;;;;30.20;28.30;;;;;;;;;;6251965;22;20402;-86
2021/06/17 02:20:03;;;;;;;31.07;28.93;;;;;;;;;;6277920;22;20375;-86
2021/06/17 02:22:33;;;;;;;30.40;28.50;;;;;;;;;;6277901;22;20365;-86
2021/06/17 02:25:00;;;;;;;33.50;31.30;;;;;;;;;;6277743;22;20372;-86
2021/06/17 02:27:29;;;;;;;32.00;29.90;;;;;;;;;;6278156;22;20445;-86
2021/06/17 02:29:58;;;;;;;32.23;30.03;;;;;;;;;;6277253;22;20390;-86
2021/06/17 02:32:26;;;;;;;31.47;29.47;;;;;;;;;;6251435;22;20867;-86
2021/06/17 02:34:54;;;;;;;30.53;28.60;;;;;;;;;;6278229;22;20372;-86
2021/06/17 02:37:22;;;;;;;31.00;28.73;;;;;;;;;;6250901;22;20445;-86
2021/06/17 02:39:52;;;;;;;31.67;29.60;;;;;;;;;;6278116;22;20373;-86
2021/06/17 02:42:21;;;;;;;31.93;29.73;;;;;;;;;;6277626;22;20384;-86
2021/06/17 02:44:50;;;;;;;32.50;30.40;;;;;;;;;;6250974;22;20383;-86
2021/06/17 02:47:18;;;;;;;31.63;29.47;;;;;;;;;;6251101;22;20744;-86
2021/06/17 02:49:45;;;;;;;31.60;29.60;;;;;;;;;;6277420;22;20478;-86
2021/06/17 02:52:13;;;;;;;30.23;28.33;;;;;;;;;;6277846;22;20368;-86
2021/06/17 02:54:40;;;;;;;31.70;29.70;;;;;;;;;;6278079;22;20372;-86
2021/06/17 02:57:14;;;;;;;30.10;28.20;;;;;;;;;;6277492;22;20849;-86
2021/06/17 02:59:50;;;;;;;31.17;29.27;;;;;;;;;;6277903;22;20368;-86
2021/06/17 03:02:20;;;;;;;31.23;29.13;;;;;;;;;;6278422;22;20367;-86
2021/06/17 03:04:49;;;;;;;31.43;29.40;;;;;;;;;;6277982;22;20397;-86
2021/06/17 03:07:20;;;;;;;29.90;27.80;;;;;;;;;;6277604;22;20433;-86
2021/06/17 03:09:48;;;;;;;30.77;28.73;;;;;;;;;;6278095;22;20391;-86
2021/06/17 03:12:19;;;;;;;30.47;28.37;;;;;;;;;;6277298;22;20387;-86
2021/06/17 03:14:47;;;;;;;31.73;29.63;;;;;;;;;;6279636;22;20396;-86
2021/06/17 03:17:16;;;;;;;30.17;28.30;;;;;;;;;;6279719;22;20387;-86
2021/06/17 03:19:44;;;;;;;30.10;28.30;;;;;;;;;;6279832;22;20416;-86
2021/06/17 03:22:14;;;;;;;30.80;28.70;;;;;;;;;;6253268;22;20375;-86
2021/06/17 03:24:43;;;;;;;28.80;26.80;;;;;;;;;;6279378;22;20409;-86
2021/06/17 03:27:11;;;;;;;30.93;28.70;;;;;;;;;;6279536;22;20463;-86
2021/06/17 03:29:42;;;;;;;31.13;29.07;;;;;;;;;;6279788;22;20396;-85
2021/06/17 03:32:11;;;;;;;30.60;28.70;;;;;;;;;;6279704;22;20454;-83
2021/06/17 03:34:39;;;;;;;31.60;29.53;;;;;;;;;;6279227;22;20387;-84
2021/06/17 03:37:06;;;;;;;31.00;29.00;;;;;;;;;;6279614;22;20375;-86
2021/06/17 03:39:35;;;;;;;30.37;28.37;;;;;;;;;;6279312;22;20408;-85
2021/06/17 03:42:03;;;;;;;31.73;29.73;;;;;;;;;;6279964;22;20395;-86
2021/06/17 03:44:30;;;;;;;31.60;29.60;;;;;;;;;;6279236;22;20393;-84
2021/06/17 03:47:00;;;;;;;30.40;28.60;;;;;;;;;;6278916;22;20952;-84
2021/06/17 03:49:28;;;;;;;29.77;27.97;;;;;;;;;;6279208;22;20378;-86
2021/06/17 03:51:57;;;;;;;31.10;28.47;;;;;;;;;;6279442;22;20432;-86
2021/06/17 03:54:26;;;;;;;30.83;28.63;;;;;;;;;;6278867;22;20428;-86
2021/06/17 03:56:54;;;;;;;29.57;27.83;;;;;;;;;;6252922;22;20397;-84
2021/06/17 03:59:22;;;;;;;29.50;27.60;;;;;;;;;;6278946;22;20848;-84
2021/06/17 04:01:49;;;;;;;30.43;28.13;;;;;;;;;;6279311;22;20389;-84
2021/06/17 04:04:18;;;;;;;28.83;26.90;;;;;;;;;;6278784;22;20389;-84
2021/06/17 04:06:47;;;;;;;28.17;26.47;;;;;;;;;;6278753;22;20448;-84
2021/06/17 04:09:14;;;;;;;28.43;26.63;;;;;;;;;;6279389;22;20399;-84
2021/06/17 04:11:43;;;;;;;28.20;26.40;;;;;;;;;;6278837;22;20403;-84
2021/06/17 04:14:10;;;;;;;28.73;26.90;;;;;;;;;;6278977;22;20372;-83
2021/06/17 04:16:38;;;;;;;28.57;26.57;;;;;;;;;;6278992;22;20424;-84
2021/06/17 04:19:05;;;;;;;28.23;26.43;;;;;;;;;;6252048;22;20383;-83
2021/06/17 04:21:36;;;;;;;29.83;27.90;;;;;;;;;;6279188;22;20400;-83
2021/06/17 04:24:05;;;;;;;29.10;27.30;;;;;;;;;;6279451;22;20372;-84
2021/06/17 04:26:34;;;;;;;28.87;26.87;;;;;;;;;;6278244;22;20491;-84
2021/06/17 04:29:01;;;;;;;29.23;27.50;;;;;;;;;;6278087;22;20450;-83
2021/06/17 04:31:29;;;;;;;28.60;26.90;;;;;;;;;;6278871;22;20397;-84
2021/06/17 04:33:57;;;;;;;28.73;26.83;;;;;;;;;;6251821;22;20790;-84
2021/06/17 04:36:24;;;;;;;28.20;26.40;;;;;;;;;;6277928;22;20422;-83
2021/06/17 04:38:53;;;;;;;28.93;27.13;;;;;;;;;;6278947;22;20697;-84
2021/06/17 04:41:20;;;;;;;28.10;26.50;;;;;;;;;;6278848;22;20881;-84
2021/06/17 04:43:48;;;;;;;29.33;27.53;;;;;;;;;;6278831;22;20687;-84
2021/06/17 04:46:15;;;;;;;29.70;27.80;;;;;;;;;;6278771;22;20506;-84
2021/06/17 04:48:44;;;;;;;32.93;30.90;;;;;;;;;;6278884;22;20428;-84
2021/06/17 04:51:16;;;;;;;31.53;29.70;;;;;;;;;;6278900;22;20372;-84
2021/06/17 04:53:43;;;;;;;30.57;28.53;;;;;;;;;;6278843;22;20367;-84
2021/06/17 04:56:13;;;;;;;30.30;28.43;;;;;;;;;;6278328;22;20374;-84
2021/06/17 04:58:42;;;;;;;29.40;27.63;;;;;;;;;;6278747;22;20447;-84
2021/06/17 05:01:10;;;;;;;28.63;26.73;;;;;;;;;;6278681;22;20901;-84
2021/06/17 05:03:37;;;;;;;29.37;27.30;;;;;;;;;;6278643;22;20360;-84
2021/06/17 05:06:05;;;;;;;26.63;24.73;;;;;;;;;;6278444;22;20435;-84
2021/06/17 05:11:20;;;;;;;28.47;26.60;;;;;;;;;;6278375;22;20382;-84
2021/06/17 05:13:47;;;;;;;29.30;27.40;;;;;;;;;;6278494;22;20459;-83
2021/06/17 05:16:14;;;;;;;29.90;27.93;;;;;;;;;;6278037;22;20396;-83
2021/06/17 05:18:42;;;;;;;29.10;27.30;;;;;;;;;;6278168;22;20407;-84
2021/06/17 05:21:09;;;;;;;27.40;25.87;;;;;;;;;;6278585;22;20394;-84
2021/06/17 05:23:38;;;;;;;29.30;27.50;;;;;;;;;;6278994;22;20395;-84
2021/06/17 05:26:06;;;;;;;28.77;26.70;;;;;;;;;;6226083;22;20414;-85
2021/06/17 05:28:35;;;;;;;27.93;26.33;;;;;;;;;;6277636;22;20445;-85
2021/06/17 05:31:03;;;;;;;29.47;27.67;;;;;;;;;;6278915;22;20360;-85
2021/06/17 05:33:33;;;;;;;27.90;26.40;;;;;;;;;;6278057;22;20398;-85
2021/06/17 05:36:02;;;;;;;28.17;25.90;;;;;;;;;;6278376;22;20383;-85
2021/06/17 05:38:31;;;;;;;28.73;27.03;;;;;;;;;;6278374;22;20363;-85
2021/06/17 05:40:58;;;;;;;28.40;26.40;;;;;;;;;;6278483;22;20393;-85
2021/06/17 05:43:25;;;;;;;30.47;28.77;;;;;;;;;;6278478;22;20852;-85
2021/06/17 05:45:54;;;;;;;27.77;26.00;;;;;;;;;;6278073;22;20483;-85
2021/06/17 05:48:22;;;;;;;28.30;26.60;;;;;;;;;;6278442;22;20404;-85
2021/06/17 05:50:49;;;;;;;28.70;27.00;;;;;;;;;;6278322;22;20838;-85
2021/06/17 05:53:17;;;;;;;27.30;25.70;;;;;;;;;;6278451;22;20397;-85
2021/06/17 05:55:44;;;;;;;27.50;25.80;;;;;;;;;;6278306;22;20722;-86
2021/06/17 05:58:13;;;;;;;29.00;27.20;;;;;;;;;;6278250;22;20384;-85
2021/06/17 06:00:40;;;;;;;27.57;25.83;;;;;;;;;;6277805;22;20838;-85
2021/06/17 06:03:09;;;;;;;27.03;25.33;;;;;;;;;;6278040;22;20372;-85
2021/06/17 06:05:37;;;;;;;27.33;25.30;;;;;;;;;;6278276;22;20410;-86
2021/06/17 06:08:07;;;;;;;28.47;26.80;;;;;;;;;;6278493;22;20441;-85
2021/06/17 06:10:35;;;;;;;27.40;25.60;;;;;;;;;;6277901;22;20421;-84
2021/06/17 06:13:02;;;;;;;27.90;25.60;;;;;;;;;;6278147;22;20368;-85
2021/06/17 06:15:33;;;;;;;26.73;25.07;;;;;;;;;;6278132;22;20421;-86
2021/06/17 06:18:04;;;;;;;27.30;25.60;;;;;;;;;;6278432;22;20461;-85
2021/06/17 06:20:34;;;;;;;26.53;25.03;;;;;;;;;;6278198;22;20690;-85
2021/06/17 06:23:01;;;;;;;26.87;25.27;;;;;;;;;;6278202;22;20368;-85
2021/06/17 06:25:28;;;;;;;28.00;26.03;;;;;;;;;;6278098;22;20391;-85
2021/06/17 06:27:56;;;;;;;26.87;25.10;;;;;;;;;;6277645;22;20442;-86
2021/06/17 06:30:24;;;;;;;27.30;25.40;;;;;;;;;;6277855;22;20441;-84
2021/06/17 06:32:51;;;;;;;27.40;25.80;;;;;;;;;;6278429;22;20375;-84
2021/06/17 06:35:19;;;;;;;27.83;25.67;;;;;;;;;;6277591;22;20373;-85
2021/06/17 06:37:49;;;;;;;27.67;25.97;;;;;;;;;;6278278;22;20368;-85
2021/06/17 06:40:17;;;;;;;28.50;26.50;;;;;;;;;;6277547;22;20916;-86
2021/06/17 06:42:44;;;;;;;26.30;24.70;;;;;;;;;;6278136;22;20376;-85
2021/06/17 06:45:12;;;;;;;28.10;26.33;;;;;;;;;;6251107;22;20672;-85
2021/06/17 06:47:40;;;;;;;27.47;25.87;;;;;;;;;;6277096;22;20914;-85
2021/06/17 06:50:08;;;;;;;26.90;25.20;;;;;;;;;;6277925;22;20401;-85
2021/06/17 06:52:35;;;;;;;27.00;25.50;;;;;;;;;;6277835;22;20409;-86
2021/06/17 06:55:04;;;;;;;26.40;24.90;;;;;;;;;;6277732;22;20876;-85
2021/06/17 06:57:32;;;;;;;28.53;26.77;;;;;;;;;;6278143;22;20697;-85
2021/06/17 07:00:00;;;;;;;27.23;25.43;;;;;;;;;;6251218;22;20384;-85
2021/06/17 07:02:27;;;;;;;28.93;26.93;;;;;;;;;;6277885;22;20377;-86
2021/06/17 07:04:54;;;;;;;27.87;26.27;;;;;;;;;;6277588;22;20886;-85
2021/06/17 07:07:22;;;;;;;28.73;26.80;;;;;;;;;;6276645;22;20448;-84
2021/06/17 07:09:51;;;;;;;27.27;25.50;;;;;;;;;;6277744;22;20374;-85
2021/06/17 07:12:20;;;;;;;27.53;25.77;;;;;;;;;;6278087;22;20416;-86
2021/06/17 07:14:48;;;;;;;26.90;25.10;;;;;;;;;;6277156;22;20422;-87
2021/06/17 07:17:15;;;;;;;27.90;25.73;;;;;;;;;;6277502;22;20394;-88
2021/06/17 07:19:43;;;;;;;26.83;25.10;;;;;;;;;;6277883;22;20368;-86
2021/06/17 07:22:11;;;;;;;26.10;24.33;;;;;;;;;;6277987;22;20394;-85
2021/06/17 07:24:38;;;;;;;27.67;25.97;;;;;;;;;;6277348;22;20448;-86
2021/06/17 07:27:06;;;;;;;26.13;24.30;;;;;;;;;;6277432;22;20407;-86
2021/06/17 07:29:35;;;;;;;27.57;25.63;;;;;;;;;;6277859;22;20376;-86
2021/06/17 07:32:03;;;;;;;27.17;25.47;;;;;;;;;;6277781;22;20401;-86
2021/06/17 07:34:30;;;;;;;27.27;25.47;;;;;;;;;;6277544;22;20861;-86
2021/06/17 07:36:58;;;;;;;28.00;26.20;;;;;;;;;;6277640;22;20398;-84
2021/06/17 07:39:25;;;;;;;27.17;25.63;;;;;;;;;;6277601;22;20388;-86
2021/06/17 07:41:53;;;;;;;26.57;24.70;;;;;;;;;;6250809;22;20400;-83
2021/06/17 07:44:20;;;;;;;27.17;25.37;;;;;;;;;;6277496;22;20401;-84
2021/06/17 07:46:49;;;;;;;27.30;25.50;;;;;;;;;;6276998;22;20941;-84
2021/06/17 07:49:16;;;;;;;26.97;25.20;;;;;;;;;;6277242;22;20407;-83
2021/06/17 07:51:44;;;;;;;27.63;25.83;;;;;;;;;;6277145;22;20396;-94
2021/06/17 07:54:11;;;;;;;27.27;25.57;;;;;;;;;;6277024;22;20420;-83
2021/06/17 07:56:38;;;;;;;26.07;24.43;;;;;;;;;;6249894;22;20868;-83
2021/06/17 07:59:06;;;;;;;25.83;24.20;;;;;;;;;;6277000;22;20720;-84
2021/06/17 08:01:33;;;;;;;26.97;25.10;;;;;;;;;;6278565;22;20396;-84
2021/06/17 08:04:06;;;;;;;27.23;25.23;;;;;;;;;;6278763;22;20444;-83
2021/06/17 08:06:34;;;;;;;25.50;23.83;;;;;;;;;;6279054;22;20410;-83
2021/06/17 08:09:03;;;;;;;26.03;24.43;;;;;;;;;;6279120;22;20708;-83
2021/06/17 08:11:30;;;;;;;26.50;24.80;;;;;;;;;;6278266;22;20416;-82
2021/06/17 08:13:58;;;;;;;27.07;25.27;;;;;;;;;;6278828;22;20394;-84
2021/06/17 08:16:25;;;;;;;28.30;26.43;;;;;;;;;;6278965;22;20382;-83
2021/06/17 08:18:54;;;;;;;26.77;25.13;;;;;;;;;;6278615;22;20375;-84
2021/06/17 08:21:23;;;;;;;27.77;25.90;;;;;;;;;;6251642;22;20428;-83
2021/06/17 08:23:54;;;;;;;26.77;25.10;;;;;;;;;;6278987;22;20866;-84
2021/06/17 08:26:21;;;;;;;25.50;24.00;;;;;;;;;;6278513;22;20444;-85
2021/06/17 08:28:49;;;;;;;27.10;25.50;;;;;;;;;;6278464;22;20779;-83
2021/06/17 08:31:16;;;;;;;25.43;23.83;;;;;;;;;;6278599;22;20358;-84
2021/06/17 08:33:44;;;;;;;25.63;23.93;;;;;;;;;;6278853;22;20370;-84
2021/06/17 08:36:11;;;;;;;26.23;24.63;;;;;;;;;;6278503;22;20401;-84
2021/06/17 08:38:42;;;;;;;26.40;24.40;;;;;;;;;;6278585;22;20401;-83
2021/06/17 08:41:09;;;;;;;25.80;24.30;;;;;;;;;;6278648;22;20395;-84
2021/06/17 08:43:37;;;;;;;27.03;25.23;;;;;;;;;;6251945;22;20422;-84
2021/06/17 08:46:05;;;;;;;26.40;24.70;;;;;;;;;;6252261;22;20839;-83
2021/06/17 08:48:33;;;;;;;27.10;25.30;;;;;;;;;;6251616;22;20418;-84
2021/06/17 08:51:00;;;;;;;26.93;25.13;;;;;;;;;;6278452;22;20382;-84
2021/06/17 08:53:28;;;;;;;26.83;25.17;;;;;;;;;;6278378;22;20374;-83
2021/06/17 08:55:57;;;;;;;26.73;25.00;;;;;;;;;;6278421;22;20374;-83
2021/06/17 08:58:24;;;;;;;26.63;24.83;;;;;;;;;;6278641;22;20378;-83
2021/06/17 09:00:52;;;;;;;25.50;24.00;;;;;;;;;;6278697;22;20717;-84
2021/06/17 09:03:20;;;;;;;26.30;24.50;;;;;;;;;;6278742;22;20399;-84
2021/06/17 09:05:51;;;;;;;26.13;24.60;;;;;;;;;;6278226;22;20412;-84
2021/06/17 09:08:23;;;;;;;26.40;24.70;;;;;;;;;;6278015;22;20932;-84
2021/06/17 09:10:50;;;;;;;26.33;24.30;;;;;;;;;;6278338;22;20483;-84
2021/06/17 09:13:19;;;;;;;26.27;24.60;;;;;;;;;;6278585;22;20383;-84
2021/06/17 09:15:49;;;;;;;25.90;24.30;;;;;;;;;;6277926;22;20928;-83
2021/06/17 09:18:18;;;;;;;25.13;23.30;;;;;;;;;;6278468;22;20488;-83
2021/06/17 09:20:53;;;;;;;25.90;24.00;;;;;;;;;;6278358;22;20389;-83
2021/06/17 09:23:25;;;;;;;24.27;22.77;;;;;;;;;;6278327;22;20368;-83
2021/06/17 09:25:53;;;;;;;25.30;23.80;;;;;;;;;;6278200;22;20405;-82
2021/06/17 09:28:22;;;;;;;25.50;23.70;;;;;;;;;;6250696;22;20449;-83
2021/06/17 09:30:49;;;;;;;25.97;24.37;;;;;;;;;;6277846;22;20404;-83
2021/06/17 09:33:17;;;;;;;26.10;24.50;;;;;;;;;;6277781;22;20394;-83
2021/06/17 09:35:54;;;;;;;26.83;25.20;;;;;;;;;;6277978;22;20404;-83
2021/06/17 09:38:22;;;;;;;26.07;24.27;;;;;;;;;;6278131;22;20393;-82
2021/06/17 09:40:51;;;;;;;26.80;25.00;;;;;;;;;;6250915;22;20701;-82
2021/06/17 09:43:20;;;;;;;25.87;24.20;;;;;;;;;;6277324;22;20448;-83
2021/06/17 09:46:02;;;;;;;26.27;24.67;;;;;;;;;;6278219;22;20420;-83
2021/06/17 09:48:30;;;;;;;26.40;24.77;;;;;;;;;;6277628;22;20443;-83
2021/06/17 09:50:58;;;;;;;25.37;23.77;;;;;;;;;;6278079;22;20396;-83
2021/06/17 09:53:26;;;;;;;26.00;24.20;;;;;;;;;;6276745;22;20401;-83
2021/06/17 09:55:53;;;;;;;25.53;23.83;;;;;;;;;;6277882;22;20452;-83
2021/06/17 09:58:37;;;;;;;25.90;24.30;;;;;;;;;;6277883;22;20369;-82
2021/06/17 10:01:12;;;;;;;26.27;24.53;;;;;;;;;;6277616;22;20394;-83
2021/06/17 10:03:40;;;;;;;26.73;25.03;;;;;;;;;;6277515;22;20404;-83
2021/06/17 10:06:18;;;;;;;26.43;24.63;;;;;;;;;;6277998;22;20447;-83
2021/06/17 10:08:45;;;;;;;28.00;25.80;;;;;;;;;;6277826;22;20507;-82
2021/06/17 10:11:14;;;;;;;26.70;25.10;;;;;;;;;;6277481;22;20400;-83
2021/06/17 10:13:41;;;;;;;26.77;24.73;;;;;;;;;;6277900;22;20427;-83
2021/06/17 10:16:16;;;;;;;27.90;25.90;;;;;;;;;;6277742;22;20433;-83
2021/06/17 10:18:45;;;;;;;26.10;24.10;;;;;;;;;;6277426;22;20872;-83
2021/06/17 10:21:14;;;;;;;26.00;24.40;;;;;;;;;;6277445;22;20395;-83
2021/06/17 10:23:42;;;;;;;26.40;24.60;;;;;;;;;;6249801;22;20699;-83
2021/06/17 10:26:10;;;;;;;26.97;25.20;;;;;;;;;;6277674;22;20782;-83
2021/06/17 10:28:41;;;;;;;25.60;24.00;;;;;;;;;;6277480;22;20420;-83
2021/06/17 10:31:11;;;;;;;24.10;22.70;;;;;;;;;;6277344;22;20422;-83
2021/06/17 10:33:39;;;;;;;25.20;23.50;;;;;;;;;;6277511;22;20474;-83
2021/06/17 10:36:24;;;;;;;25.73;24.07;;;;;;;;;;6250746;22;20409;-83
2021/06/17 10:39:25;;;;;;;25.73;24.03;;;;;;;;;;6277789;22;20457;-83
2021/06/17 10:42:13;;;;;;;26.80;25.03;;;;;;;;;;6183712;23;20405;-82
2021/06/17 10:44:49;;;;;;;24.97;23.47;;;;;;;;;;6183822;23;20437;-82
2021/06/17 10:47:35;;;;;;;26.57;24.87;;;;;;;;;;6184127;23;20470;-81
2021/06/17 10:50:04;;;;;;;25.70;24.10;;;;;;;;;;6183643;23;20519;-82
2021/06/17 10:52:33;;;;;;;24.90;23.40;;;;;;;;;;6183786;23;20411;-82
2021/06/17 10:55:01;;;;;;;25.67;24.07;;;;;;;;;;6183556;23;20419;-82
2021/06/17 10:57:48;;;;;;;24.37;22.90;;;;;;;;;;6183639;23;20833;-82
2021/06/17 11:00:34;;;;;;;26.00;24.40;;;;;;;;;;6183769;23;20410;-82
2021/06/17 11:03:26;;;;;;;25.80;24.10;;;;;;;;;;6183668;23;20375;-82
2021/06/17 11:05:54;;;;;;;25.00;23.47;;;;;;;;;;6183476;23;20909;-82
2021/06/17 11:08:25;;;;;;;25.73;23.93;;;;;;;;;;6183503;23;20764;-82
2021/06/17 11:10:53;;;;;;;25.70;24.10;;;;;;;;;;6183767;23;20875;-82
2021/06/17 11:13:28;;;;;;;25.93;24.23;;;;;;;;;;6252109;22;20925;-82
2021/06/17 11:15:55;;;;;;;25.73;24.23;;;;;;;;;;6277376;22;20374;-82
2021/06/17 11:18:41;;;;;;;25.93;24.33;;;;;;;;;;6277314;22;20433;-82
2021/06/17 11:21:38;;;;;;;26.20;24.60;;;;;;;;;;6276948;22;20415;-83
2021/06/17 11:24:21;;;;;;;26.87;24.97;;;;;;;;;;6277490;22;20399;-84
2021/06/17 11:26:50;;;;;;;27.13;25.33;;;;;;;;;;6276137;22;20743;-84
2021/06/17 11:29:19;;;;;;;26.53;24.70;;;;;;;;;;6277379;22;20927;-85
2021/06/17 11:31:47;;;;;;;25.63;24.03;;;;;;;;;;6277457;22;20438;-82
2021/06/17 11:34:15;;;;;;;26.00;24.30;;;;;;;;;;6278319;22;20400;-82
2021/06/17 11:36:51;;;;;;;27.27;25.47;;;;;;;;;;6279263;22;20402;-80
2021/06/17 11:39:22;;;;;;;26.23;24.50;;;;;;;;;;6278863;22;20390;-81
2021/06/17 11:41:49;;;;;;;26.07;24.27;;;;;;;;;;6280231;22;20397;-83
2021/06/17 11:44:19;;;;;;;25.83;24.13;;;;;;;;;;6278894;22;20396;-82
2021/06/17 11:46:48;;;;;;;26.77;24.73;;;;;;;;;;6279317;22;20377;-82
2021/06/17 11:49:17;;;;;;;27.03;25.03;;;;;;;;;;6279400;22;20499;-88
2021/06/17 11:51:45;;;;;;;25.87;24.17;;;;;;;;;;6279156;22;20439;-81
2021/06/17 11:54:25;;;;;;;25.87;24.33;;;;;;;;;;6279446;22;20430;-82
2021/06/17 11:56:53;;;;;;;26.93;25.23;;;;;;;;;;6277251;22;20772;-82
2021/06/17 11:59:26;;;;;;;27.23;25.50;;;;;;;;;;6278710;22;20391;-82
2021/06/17 12:02:10;;;;;;;26.60;25.00;;;;;;;;;;6279038;22;20407;-83
2021/06/17 12:04:45;;;;;;;27.00;24.90;;;;;;;;;;6278570;22;20501;-83
2021/06/17 12:07:12;;;;;;;27.83;25.80;;;;;;;;;;6278974;22;20380;-83
2021/06/17 12:09:41;;;;;;;26.80;25.00;;;;;;;;;;6278590;22;20439;-82
2021/06/17 12:12:19;;;;;;;26.70;25.00;;;;;;;;;;6278255;22;20397;-83
2021/06/17 12:14:47;;;;;;;27.27;25.57;;;;;;;;;;6278270;22;20433;-83
2021/06/17 12:17:26;;;;;;;27.30;25.33;;;;;;;;;;6278545;22;20365;-83
2021/06/17 12:19:54;;;;;;;26.33;24.57;;;;;;;;;;6251990;22;20408;-83
2021/06/17 12:22:22;;;;;;;26.63;25.03;;;;;;;;;;6279025;22;20400;-83
2021/06/17 12:24:50;;;;;;;27.47;25.77;;;;;;;;;;6278278;22;20398;-80
2021/06/17 12:27:18;;;;;;;27.77;25.77;;;;;;;;;;6278979;22;20462;-85
2021/06/17 12:29:46;;;;;;;27.03;25.00;;;;;;;;;;6278214;22;20449;-80
2021/06/17 12:32:14;;;;;;;27.03;25.33;;;;;;;;;;6278627;22;20485;-81
2021/06/17 12:34:42;;;;;;;27.23;25.53;;;;;;;;;;6278457;22;20393;-79
2021/06/17 12:37:11;;;;;;;28.27;26.07;;;;;;;;;;6277978;22;20412;-80
2021/06/17 12:39:39;;;;;;;27.00;25.40;;;;;;;;;;6278464;22;20739;-80
2021/06/17 12:42:12;;;;;;;26.53;24.80;;;;;;;;;;6278596;22;20412;-80
2021/06/17 12:44:40;;;;;;;26.57;24.77;;;;;;;;;;6278789;22;20405;-80
2021/06/17 12:47:12;;;;;;;26.23;24.60;;;;;;;;;;6277834;22;20410;-80
2021/06/17 12:52:28;;;;;;;27.20;25.40;;;;;;;;;;6278301;22;20362;-80
2021/06/17 12:54:55;;;;;;;27.40;25.50;;;;;;;;;;6278008;22;20424;-80
2021/06/17 12:57:25;;;;;;;28.33;26.43;;;;;;;;;;6278091;22;20702;-80
2021/06/17 12:59:55;;;;;;;27.17;25.47;;;;;;;;;;6278349;22;20901;-80
2021/06/17 13:02:46;;;;;;;27.70;25.77;;;;;;;;;;6278017;22;20906;-80
2021/06/17 13:05:16;;;;;;;26.87;25.07;;;;;;;;;;6278096;22;20364;-80
2021/06/17 13:07:59;;;;;;;26.73;25.03;;;;;;;;;;6279380;22;20391;-79
2021/06/17 13:10:27;;;;;;;27.10;25.30;;;;;;;;;;6251242;22;20430;-81
2021/06/17 13:13:13;;;;;;;27.07;25.27;;;;;;;;;;6278350;22;20370;-80
2021/06/17 13:15:41;;;;;;;26.77;25.10;;;;;;;;;;6278545;22;20433;-80
2021/06/17 13:18:09;;;;;;;26.43;24.83;;;;;;;;;;6278038;22;20378;-80
2021/06/17 13:20:38;;;;;;;27.40;25.70;;;;;;;;;;6278989;22;20385;-80
2021/06/17 13:23:09;;;;;;;27.77;26.07;;;;;;;;;;6276696;22;20396;-80
2021/06/17 13:25:37;;;;;;;25.87;24.27;;;;;;;;;;6250469;22;20890;-79
2021/06/17 13:28:07;;;;;;;27.50;25.80;;;;;;;;;;6277618;22;20441;-79
2021/06/17 13:30:35;;;;;;;27.37;25.50;;;;;;;;;;6278732;22;20448;-80
2021/06/17 13:33:04;;;;;;;27.00;25.40;;;;;;;;;;6278072;22;20411;-80
2021/06/17 13:35:32;;;;;;;28.13;26.17;;;;;;;;;;6251443;22;20397;-79
2021/06/17 13:37:59;;;;;;;27.97;26.03;;;;;;;;;;6277577;22;20795;-80
2021/06/17 13:40:27;;;;;;;28.07;26.27;;;;;;;;;;6277672;22;20405;-82
2021/06/17 13:42:55;;;;;;;27.27;25.47;;;;;;;;;;6277611;22;20401;-79
2021/06/17 13:45:24;;;;;;;27.53;25.63;;;;;;;;;;6278374;22;20449;-80
2021/06/17 13:47:52;;;;;;;28.67;26.77;;;;;;;;;;6277618;22;20386;-80
2021/06/17 13:50:19;;;;;;;27.60;25.80;;;;;;;;;;6277839;22;20504;-81
2021/06/17 13:52:47;;;;;;;26.50;24.90;;;;;;;;;;6277673;22;20368;-90
2021/06/17 13:55:18;;;;;;;27.50;25.80;;;;;;;;;;6277894;22;20392;-85
2021/06/17 13:57:46;;;;;;;27.57;25.40;;;;;;;;;;6277568;22;20428;-85
2021/06/17 14:00:13;;;;;;;26.67;24.97;;;;;;;;;;6277521;22;20405;-88
2021/06/17 14:02:43;;;;;;;28.00;26.20;;;;;;;;;;6251421;22;20429;-86
2021/06/17 14:05:12;;;;;;;27.90;25.97;;;;;;;;;;6251231;22;20459;-86
2021/06/17 14:07:40;;;;;;;27.90;26.10;;;;;;;;;;6278391;22;20391;-85
2021/06/17 14:10:09;;;;;;;27.10;25.20;;;;;;;;;;6277814;22;20437;-79
2021/06/17 14:12:37;;;;;;;27.73;25.77;;;;;;;;;;6277526;22;20398;-79
2021/06/17 14:15:04;;;;;;;26.07;24.47;;;;;;;;;;6278675;22;20436;-79
2021/06/17 14:17:32;;;;;;;26.97;25.33;;;;;;;;;;6277287;22;20894;-79
2021/06/17 14:20:00;;;;;;;26.20;24.60;;;;;;;;;;6277790;22;20406;-79
2021/06/17 14:22:28;;;;;;;25.80;24.10;;;;;;;;;;6277703;22;20394;-80
2021/06/17 14:24:56;;;;;;;25.17;23.60;;;;;;;;;;6277425;22;20394;-77
2021/06/17 14:27:24;;;;;;;26.50;24.90;;;;;;;;;;6277289;22;20441;-78
2021/06/17 14:29:51;;;;;;;25.93;24.33;;;;;;;;;;6277439;22;20437;-78
2021/06/17 14:32:19;;;;;;;25.57;24.00;;;;;;;;;;6277562;22;20405;-78
2021/06/17 14:34:46;;;;;;;26.30;24.60;;;;;;;;;;6277194;22;20406;-77